Time;durP1;ratioP1;P1;durP2;ratioP2;P2;SDS_P1;SDS_P2;PMS_P1;PMS_P2;Temp;Humidity;BMP_temperature;BMP_pressure;BME280_temperature;BME280_humidity;BME280_pressure;Samples;Min_cycle;Max_cycle;Signal;HPM_P1;HPM_P2
2022/06/18 00:00:51;;;;;;;0.35;0.35;;;18.50;99.90;;;;;;4896664;29;20495;-86
2022/06/18 00:03:18;;;;;;;0.93;0.30;;;18.60;99.90;;;;;;4897001;29;20040;-86
2022/06/18 00:05:46;;;;;;;0.47;0.38;;;18.60;99.90;;;;;;4896623;29;20052;-86
2022/06/18 00:08:20;;;;;;;0.30;0.30;;;18.60;99.90;;;;;;4896713;29;20132;-86
2022/06/18 00:10:46;;;;;;;0.22;0.22;;;18.50;99.90;;;;;;4881131;29;20049;-86
2022/06/18 00:16:00;;;;;;;0.55;0.45;;;18.50;99.90;;;;;;4900321;29;20484;-84
2022/06/18 00:18:26;;;;;;;0.00;0.00;;;18.50;99.90;;;;;;4900307;29;20048;-84
2022/06/18 00:20:52;;;;;;;0.13;0.13;;;18.50;99.90;;;;;;4900408;29;20083;-83
2022/06/18 00:23:19;;;;;;;0.43;0.43;;;18.60;99.90;;;;;;4884153;29;20076;-83
2022/06/18 00:25:48;;;;;;;0.10;0.10;;;18.60;99.90;;;;;;4884561;29;20496;-83
2022/06/18 00:28:19;;;;;;;0.10;0.10;;;18.60;99.90;;;;;;4900001;29;20044;-84
2022/06/18 00:30:45;;;;;;;0.20;0.20;;;18.70;99.90;;;;;;4900420;29;20057;-86
2022/06/18 00:33:11;;;;;;;0.30;0.22;;;18.80;99.90;;;;;;4900068;29;20112;-86
2022/06/18 00:35:37;;;;;;;0.10;0.10;;;18.90;99.90;;;;;;4900045;29;20036;-87
2022/06/18 00:38:05;;;;;;;0.08;0.08;;;18.90;99.90;;;;;;4884496;29;20044;-86
2022/06/18 00:40:42;;;;;;;0.57;0.57;;;18.90;99.90;;;;;;4899723;29;20480;-86
2022/06/18 00:43:20;;;;;;;0.30;0.30;;;18.90;99.90;;;;;;4899883;29;20464;-86
2022/06/18 00:45:45;;;;;;;0.52;0.52;;;19.10;99.90;;;;;;4884481;29;20052;-87
2022/06/18 00:48:29;;;;;;;0.17;0.17;;;19.10;99.90;;;;;;4868778;29;20040;-85
2022/06/18 00:51:08;;;;;;;0.30;0.30;;;19.20;99.90;;;;;;4899633;29;20059;-84
2022/06/18 00:53:42;;;;;;;0.38;0.38;;;19.20;99.90;;;;;;4899987;29;20056;-84
2022/06/18 00:56:43;;;;;;;0.22;0.22;;;19.20;99.90;;;;;;4884052;29;20183;-84
2022/06/18 00:59:13;;;;;;;0.52;0.52;;;19.30;99.90;;;;;;4899571;29;20505;-84
2022/06/18 01:01:42;;;;;;;0.55;0.52;;;19.20;99.90;;;;;;4899778;29;20088;-84
2022/06/18 01:04:27;;;;;;;0.00;0.00;;;19.20;99.90;;;;;;4883964;29;20046;-86
2022/06/18 01:06:59;;;;;;;0.20;0.20;;;19.20;99.90;;;;;;4899488;29;20488;-86
2022/06/18 01:09:25;;;;;;;1.20;0.93;;;19.20;99.90;;;;;;4899452;29;20076;-86
2022/06/18 01:11:51;;;;;;;0.13;0.13;;;19.20;99.90;;;;;;4883768;29;20097;-84
2022/06/18 01:14:18;;;;;;;0.05;0.05;;;19.20;99.90;;;;;;4899182;29;20045;-86
2022/06/18 01:16:44;;;;;;;0.32;0.32;;;19.20;99.90;;;;;;4884019;29;20087;-86
2022/06/18 01:19:36;;;;;;;0.90;0.57;;;19.20;99.90;;;;;;4866544;29;20048;-84
2022/06/18 01:22:25;;;;;;;0.70;0.28;;;19.20;99.90;;;;;;4880506;29;20080;-86
2022/06/18 01:24:51;;;;;;;0.43;0.40;;;19.10;99.90;;;;;;4890453;29;20084;-86
2022/06/18 01:27:17;;;;;;;0.38;0.30;;;19.00;99.90;;;;;;4899137;29;20076;-86
2022/06/18 01:29:43;;;;;;;0.60;0.57;;;19.00;99.90;;;;;;4883680;29;20110;-86
2022/06/18 01:32:12;;;;;;;0.30;0.30;;;18.90;99.90;;;;;;4883553;29;20052;-86
2022/06/18 01:34:38;;;;;;;0.28;0.17;;;18.90;99.90;;;;;;4899130;29;20076;-86
2022/06/18 01:37:06;;;;;;;0.00;0.00;;;18.80;99.90;;;;;;4883552;29;20499;-87
2022/06/18 01:39:35;;;;;;;0.00;0.00;;;18.70;99.90;;;;;;4883521;29;20365;-87
2022/06/18 01:42:14;;;;;;;0.32;0.32;;;18.60;99.90;;;;;;4898801;29;20049;-87
2022/06/18 01:44:48;;;;;;;0.03;0.03;;;18.60;99.90;;;;;;4882856;29;20567;-86
2022/06/18 01:47:48;;;;;;;0.15;0.15;;;18.40;99.90;;;;;;4883456;29;20052;-87
2022/06/18 01:50:20;;;;;;;0.28;0.28;;;18.40;99.90;;;;;;4888672;29;20143;-87
2022/06/18 01:52:59;;;;;;;0.00;0.00;;;18.30;99.90;;;;;;4883439;29;20044;-87
2022/06/18 01:55:29;;;;;;;0.15;0.15;;;18.20;99.90;;;;;;4882968;29;20395;-87
2022/06/18 01:58:03;;;;;;;0.30;0.30;;;18.10;99.90;;;;;;4911675;23;20032;-82
2022/06/18 02:00:30;;;;;;;0.28;0.28;;;18.10;99.90;;;;;;4898726;29;20123;-82
2022/06/18 02:02:57;;;;;;;0.20;0.20;;;18.00;99.90;;;;;;4883087;29;20076;-82
2022/06/18 02:05:24;;;;;;;1.95;0.57;;;17.90;99.90;;;;;;4898367;29;20051;-82
2022/06/18 02:07:50;;;;;;;0.10;0.10;;;17.90;99.90;;;;;;4898242;29;20049;-81
2022/06/18 02:10:49;;;;;;;0.40;0.40;;;17.80;99.90;;;;;;4898360;29;20071;-81
2022/06/18 02:13:16;;;;;;;0.60;0.60;;;17.70;99.90;;;;;;4898035;29;20496;-81
2022/06/18 02:15:46;;;;;;;0.20;0.20;;;17.70;99.90;;;;;;4898064;29;20076;-81
2022/06/18 02:18:15;;;;;;;0.20;0.20;;;17.60;99.90;;;;;;4898441;29;20494;-81
2022/06/18 02:20:53;;;;;;;0.35;0.35;;;17.60;99.90;;;;;;4898028;29;20045;-81
2022/06/18 02:23:21;;;;;;;0.93;0.40;;;17.60;99.90;;;;;;4882328;29;20040;-81
2022/06/18 02:25:47;;;;;;;0.47;0.47;;;17.50;99.90;;;;;;4882404;29;20048;-83
2022/06/18 02:28:23;;;;;;;0.08;0.08;;;17.40;99.90;;;;;;4882749;29;20053;-83
2022/06/18 02:30:51;;;;;;;0.10;0.10;;;17.40;99.90;;;;;;4897864;29;20108;-83
2022/06/18 02:33:28;;;;;;;0.55;0.50;;;17.30;99.90;;;;;;4897931;29;20052;-83
2022/06/18 02:35:55;;;;;;;0.22;0.22;;;17.30;99.90;;;;;;4881984;29;20044;-83
2022/06/18 02:38:22;;;;;;;0.22;0.22;;;17.20;99.90;;;;;;4866965;29;20045;-83
2022/06/18 02:40:48;;;;;;;0.10;0.10;;;17.20;99.90;;;;;;4897574;29;20522;-83
2022/06/18 02:43:16;;;;;;;0.20;0.20;;;17.10;99.90;;;;;;4898046;29;20087;-83
2022/06/18 02:45:44;;;;;;;1.25;0.90;;;17.10;99.90;;;;;;4897547;29;20048;-83
2022/06/18 02:48:10;;;;;;;0.20;0.20;;;17.10;99.90;;;;;;4882411;29;20059;-83
2022/06/18 02:50:40;;;;;;;0.30;0.17;;;17.00;99.90;;;;;;4882028;29;20041;-83
2022/06/18 02:53:08;;;;;;;0.20;0.20;;;17.00;99.90;;;;;;4897772;29;20399;-83
2022/06/18 02:55:40;;;;;;;0.10;0.10;;;17.00;99.90;;;;;;4881818;29;20049;-83
2022/06/18 02:58:13;;;;;;;0.25;0.25;;;16.90;99.90;;;;;;4897328;29;20469;-83
2022/06/18 03:00:41;;;;;;;0.38;0.38;;;16.80;99.90;;;;;;4882161;29;20131;-83
2022/06/18 03:03:13;;;;;;;0.00;0.00;;;16.80;99.90;;;;;;4897665;29;20136;-84
2022/06/18 03:05:39;;;;;;;0.13;0.13;;;16.70;99.90;;;;;;4897359;29;20048;-84
2022/06/18 03:08:05;;;;;;;0.45;0.43;;;16.70;99.90;;;;;;4882417;29;20048;-84
2022/06/18 03:13:18;;;;;;;0.82;0.82;;;16.60;99.90;;;;;;4897333;29;20044;-84
2022/06/18 03:15:48;;;;;;;0.10;0.10;;;16.50;99.90;;;;;;4881586;29;20040;-84
2022/06/18 03:18:16;;;;;;;0.10;0.10;;;16.50;99.90;;;;;;4897326;29;20047;-84
2022/06/18 03:21:20;;;;;;;0.08;0.08;;;16.50;99.90;;;;;;4897439;29;20044;-84
2022/06/18 03:23:46;;;;;;;0.40;0.40;;;16.50;99.90;;;;;;4888263;29;20100;-84
2022/06/18 03:26:13;;;;;;;0.20;0.20;;;16.50;99.90;;;;;;4881676;29;20055;-84
2022/06/18 03:28:40;;;;;;;0.65;0.63;;;16.50;99.90;;;;;;4897039;29;20698;-84
2022/06/18 03:31:06;;;;;;;0.30;0.30;;;16.50;99.90;;;;;;4897390;29;20041;-84
2022/06/18 03:33:32;;;;;;;0.30;0.30;;;16.50;99.90;;;;;;4897105;29;20403;-82
2022/06/18 03:35:58;;;;;;;0.57;0.57;;;16.40;99.90;;;;;;4865907;29;20040;-81
2022/06/18 03:38:23;;;;;;;1.13;1.00;;;16.40;99.90;;;;;;4897004;29;20044;-82
2022/06/18 03:40:51;;;;;;;0.52;0.40;;;16.40;99.90;;;;;;4897138;29;20048;-82
2022/06/18 03:43:22;;;;;;;0.10;0.10;;;16.40;99.90;;;;;;4897511;29;20044;-82
2022/06/18 03:45:51;;;;;;;0.52;0.47;;;16.40;99.90;;;;;;4896740;29;20060;-81
2022/06/18 03:48:46;;;;;;;0.38;0.38;;;16.40;99.90;;;;;;4884636;29;20055;-81
2022/06/18 03:51:13;;;;;;;0.35;0.35;;;16.40;99.90;;;;;;4894251;29;20064;-84
2022/06/18 03:53:40;;;;;;;0.10;0.10;;;16.40;99.90;;;;;;4885435;29;20052;-84
2022/06/18 03:56:07;;;;;;;0.35;0.35;;;16.40;99.90;;;;;;4900875;29;20403;-84
2022/06/18 03:58:33;;;;;;;0.10;0.10;;;16.40;99.90;;;;;;4884879;29;20057;-84
2022/06/18 04:00:59;;;;;;;0.55;0.47;;;16.30;99.90;;;;;;4900548;29;20048;-84
2022/06/18 04:03:24;;;;;;;0.30;0.20;;;16.30;99.90;;;;;;4885113;29;20041;-84
2022/06/18 04:05:50;;;;;;;0.10;0.10;;;16.40;99.90;;;;;;4900434;29;20083;-81
2022/06/18 04:08:20;;;;;;;1.35;1.00;;;16.40;99.90;;;;;;4885244;29;20590;-81
2022/06/18 04:10:47;;;;;;;0.55;0.55;;;16.40;99.90;;;;;;4884801;29;20048;-81
2022/06/18 04:13:13;;;;;;;0.30;0.30;;;16.40;99.90;;;;;;4905299;29;20036;-81
2022/06/18 04:15:39;;;;;;;0.10;0.10;;;16.40;99.90;;;;;;4903388;29;20435;-81
2022/06/18 04:18:05;;;;;;;0.15;0.15;;;16.40;99.90;;;;;;4903488;29;20044;-81
2022/06/18 04:20:33;;;;;;;0.25;0.25;;;16.50;99.90;;;;;;4887515;29;20036;-81
2022/06/18 04:23:00;;;;;;;0.68;0.68;;;16.50;99.90;;;;;;4903421;29;20518;-81
2022/06/18 04:25:25;;;;;;;0.40;0.32;;;16.60;99.90;;;;;;4899418;29;20377;-81
2022/06/18 04:27:51;;;;;;;0.10;0.10;;;16.70;99.90;;;;;;4866010;29;20052;-81
2022/06/18 04:30:18;;;;;;;0.85;0.85;;;16.70;99.90;;;;;;4881395;29;20551;-81
2022/06/18 04:32:44;;;;;;;0.38;0.17;;;16.80;99.90;;;;;;4850542;29;20535;-81
2022/06/18 04:35:12;;;;;;;0.43;0.38;;;16.80;99.90;;;;;;4889102;29;20404;-81
2022/06/18 04:37:41;;;;;;;0.82;0.80;;;16.90;99.90;;;;;;4884586;29;20041;-81
2022/06/18 04:40:10;;;;;;;0.30;0.30;;;16.90;99.90;;;;;;4869189;29;20044;-84
2022/06/18 04:42:36;;;;;;;0.20;0.15;;;17.00;99.90;;;;;;4900032;29;20522;-84
2022/06/18 04:45:01;;;;;;;0.22;0.20;;;17.10;99.90;;;;;;4899870;29;20048;-84
2022/06/18 04:47:27;;;;;;;0.10;0.10;;;17.20;99.90;;;;;;4884149;29;20071;-84
2022/06/18 04:49:53;;;;;;;0.22;0.22;;;17.30;99.90;;;;;;4899803;29;20080;-84
2022/06/18 04:52:19;;;;;;;0.38;0.38;;;17.30;99.90;;;;;;4884324;29;20131;-84
2022/06/18 04:54:45;;;;;;;0.40;0.40;;;17.40;99.90;;;;;;4884303;29;20135;-84
2022/06/18 04:57:10;;;;;;;0.10;0.10;;;17.50;99.90;;;;;;4899787;29;20135;-81
2022/06/18 04:59:38;;;;;;;0.10;0.10;;;17.60;99.90;;;;;;4899388;29;20067;-81
2022/06/18 05:02:13;;;;;;;0.25;0.25;;;17.70;99.90;;;;;;4884372;29;20100;-81
2022/06/18 05:04:39;;;;;;;0.20;0.20;;;17.80;99.90;;;;;;4883905;29;20351;-81
2022/06/18 05:07:05;;;;;;;0.08;0.08;;;18.00;99.90;;;;;;4868832;29;20131;-81
2022/06/18 05:09:30;;;;;;;0.70;0.38;;;18.10;99.90;;;;;;4899654;29;20131;-81
2022/06/18 05:11:56;;;;;;;0.22;0.22;;;18.20;99.90;;;;;;4899264;29;20500;-81
2022/06/18 05:14:22;;;;;;;0.20;0.20;;;18.40;99.90;;;;;;4899764;29;20048;-84
2022/06/18 05:16:47;;;;;;;0.20;0.20;;;18.50;99.90;;;;;;4883674;29;20048;-84
2022/06/18 05:19:24;;;;;;;0.50;0.50;;;18.60;99.90;;;;;;4883979;29;20460;-84
2022/06/18 05:21:50;;;;;;;;;;;18.80;99.90;;;;;;4900092;29;20092;-85
2022/06/18 05:24:16;;;;;;;0.40;0.22;;;19.00;99.90;;;;;;4899301;29;20010;-84
2022/06/18 05:26:47;;;;;;;0.28;0.28;;;19.10;99.90;;;;;;4883568;29;20127;-84
2022/06/18 05:29:15;;;;;;;0.10;0.10;;;19.50;99.90;;;;;;4899197;29;20080;-84
2022/06/18 05:31:41;;;;;;;0.20;0.20;;;20.10;99.90;;;;;;4899483;29;20108;-84
2022/06/18 05:34:07;;;;;;;0.30;0.30;;;21.50;99.90;;;;;;4899261;29;20049;-84
2022/06/18 05:36:33;;;;;;;0.90;0.90;;;21.50;99.90;;;;;;4867771;29;20044;-84
2022/06/18 05:38:59;;;;;;;0.38;0.38;;;22.20;99.90;;;;;;4898861;29;20049;-85
2022/06/18 05:41:27;;;;;;;0.38;0.20;;;22.80;99.90;;;;;;4899134;29;20450;-85
2022/06/18 05:43:52;;;;;;;0.52;0.52;;;23.40;99.90;;;;;;4883250;29;20519;-84
2022/06/18 05:46:18;;;;;;;0.08;0.08;;;23.70;99.90;;;;;;4883456;29;20048;-82
2022/06/18 05:48:44;;;;;;;0.13;0.13;;;24.00;99.90;;;;;;4898738;29;20044;-82
2022/06/18 05:51:10;;;;;;;0.20;0.20;;;24.30;99.90;;;;;;4883192;29;20048;-83
2022/06/18 05:53:36;;;;;;;0.10;0.10;;;24.60;99.90;;;;;;4898635;29;20142;-83
2022/06/18 05:56:01;;;;;;;0.30;0.30;;;25.00;99.90;;;;;;4898767;29;20044;-82
2022/06/18 05:58:27;;;;;;;0.68;0.40;;;25.20;99.90;;;;;;4898619;29;20049;-82
2022/06/18 06:00:53;;;;;;;0.30;0.30;;;25.40;99.90;;;;;;4883150;29;20048;-82
2022/06/18 06:03:19;;;;;;;0.73;0.57;;;25.60;99.90;;;;;;4882965;29;20044;-83
2022/06/18 06:05:46;;;;;;;0.10;0.10;;;25.70;99.90;;;;;;4898601;29;20041;-83
2022/06/18 06:08:14;;;;;;;0.20;0.17;;;25.30;99.90;;;;;;4898666;29;20562;-82
2022/06/18 06:13:27;;;;;;;0.15;0.15;;;24.70;99.90;;;;;;4898235;29;20119;-83
2022/06/18 06:15:54;;;;;;;0.13;0.13;;;;;;;;;;4898263;29;20399;-82
2022/06/18 06:18:22;;;;;;;1.30;1.20;;;25.50;99.90;;;;;;4898352;29;20127;-83
2022/06/18 06:20:52;;;;;;;0.55;0.40;;;25.80;99.90;;;;;;4882804;29;20040;-85
2022/06/18 06:23:18;;;;;;;0.10;0.10;;;26.20;99.90;;;;;;4898889;29;20406;-85
2022/06/18 06:25:45;;;;;;;0.30;0.30;;;26.60;99.90;;;;;;4879406;29;20093;-85
2022/06/18 06:28:20;;;;;;;0.15;0.15;;;27.10;99.90;;;;;;4864126;29;20043;-85
2022/06/18 06:30:46;;;;;;;0.05;0.05;;;27.90;98.40;;;;;;4863883;29;20048;-85
2022/06/18 06:33:12;;;;;;;0.20;0.20;;;28.50;97.10;;;;;;4879419;29;20105;-85
2022/06/18 06:35:38;;;;;;;0.20;0.20;;;28.50;97.00;;;;;;4879335;29;20042;-85
2022/06/18 06:38:04;;;;;;;0.40;0.40;;;28.90;96.90;;;;;;4879184;29;20041;-85
2022/06/18 06:40:34;;;;;;;0.30;0.13;;;29.20;97.80;;;;;;4863964;29;20396;-85
2022/06/18 06:43:00;;;;;;;0.57;0.57;;;29.30;96.10;;;;;;4879103;29;20045;-85
2022/06/18 06:45:29;;;;;;;0.17;0.17;;;29.40;96.20;;;;;;4879331;29;20040;-85
2022/06/18 06:47:56;;;;;;;0.70;0.70;;;29.80;96.50;;;;;;4879046;29;20045;-85
2022/06/18 06:50:23;;;;;;;0.35;0.30;;;29.90;95.90;;;;;;4863458;29;20052;-85
2022/06/18 06:52:50;;;;;;;0.52;0.35;;;30.10;95.90;;;;;;4863715;29;20049;-85
2022/06/18 06:58:10;;;;;;;0.70;0.32;;;30.50;93.40;;;;;;4878822;29;20064;-85
2022/06/18 07:00:42;;;;;;;0.20;0.20;;;30.70;93.80;;;;;;4848333;29;20056;-85
2022/06/18 07:03:11;;;;;;;0.88;0.88;;;30.70;93.00;;;;;;4869375;29;20047;-85
2022/06/18 07:05:36;;;;;;;0.22;0.22;;;30.90;92.00;;;;;;4897627;29;20052;-86
2022/06/18 07:08:02;;;;;;;0.05;0.05;;;30.90;91.80;;;;;;4897524;29;20048;-85
2022/06/18 07:10:28;;;;;;;0.10;0.10;;;31.20;91.30;;;;;;4897613;29;20573;-83
2022/06/18 07:12:54;;;;;;;0.05;0.05;;;31.30;91.60;;;;;;4878539;29;20041;-83
2022/06/18 07:15:20;;;;;;;0.22;0.22;;;31.50;90.50;;;;;;4878700;29;20072;-83
2022/06/18 07:17:45;;;;;;;0.28;0.28;;;31.80;90.90;;;;;;4874930;29;20048;-83
2022/06/18 07:20:17;;;;;;;0.35;0.35;;;31.90;90.00;;;;;;4897443;29;20051;-83
2022/06/18 07:22:43;;;;;;;0.30;0.30;;;32.00;89.60;;;;;;4896283;29;20041;-83
2022/06/18 07:25:10;;;;;;;0.20;0.20;;;32.30;90.10;;;;;;4881589;29;20096;-83
2022/06/18 07:27:36;;;;;;;0.10;0.10;;;32.50;87.20;;;;;;4866532;29;20040;-83
2022/06/18 07:30:03;;;;;;;0.10;0.10;;;32.60;86.10;;;;;;4881447;29;20048;-83
2022/06/18 07:32:28;;;;;;;0.20;0.20;;;32.80;86.50;;;;;;4881798;29;20437;-83
2022/06/18 07:34:54;;;;;;;0.30;0.30;;;32.90;85.60;;;;;;4896828;29;20040;-83
2022/06/18 07:37:21;;;;;;;3.20;0.73;;;33.10;85.80;;;;;;4865979;29;20089;-83
2022/06/18 07:39:46;;;;;;;0.20;0.20;;;33.30;84.40;;;;;;4881623;29;20041;-83
2022/06/18 07:42:15;;;;;;;0.28;0.28;;;33.60;83.10;;;;;;4881414;29;20516;-83
2022/06/18 07:44:41;;;;;;;0.10;0.10;;;33.70;83.30;;;;;;4896877;29;20051;-85
2022/06/18 07:47:08;;;;;;;0.13;0.13;;;33.80;85.80;;;;;;4865926;29;20041;-85
2022/06/18 07:49:33;;;;;;;0.00;0.00;;;33.80;82.40;;;;;;4881485;29;20550;-85
2022/06/18 07:51:59;;;;;;;0.28;0.28;;;34.00;80.20;;;;;;4896965;29;20135;-85
2022/06/18 07:54:25;;;;;;;2.92;0.38;;;34.00;80.60;;;;;;4896787;29;20373;-84
2022/06/18 07:56:51;;;;;;;0.10;0.10;;;33.80;80.70;;;;;;4881189;29;20045;-85
2022/06/18 07:59:19;;;;;;;0.10;0.10;;;33.90;81.60;;;;;;4881126;29;20056;-84
2022/06/18 08:01:45;;;;;;;0.28;0.28;;;34.00;79.80;;;;;;4881231;29;20047;-84
2022/06/18 08:04:11;;;;;;;0.00;0.00;;;34.00;80.10;;;;;;4881231;29;20123;-84
2022/06/18 08:06:36;;;;;;;0.10;0.10;;;34.00;78.70;;;;;;4896755;29;20114;-84
2022/06/18 08:09:02;;;;;;;0.10;0.10;;;34.10;80.20;;;;;;4896630;29;20040;-84
2022/06/18 08:11:29;;;;;;;0.20;0.20;;;34.30;78.80;;;;;;4896967;29;20044;-84
2022/06/18 08:13:57;;;;;;;0.20;0.20;;;34.50;78.50;;;;;;4878206;29;20085;-85
2022/06/18 08:16:24;;;;;;;0.10;0.10;;;34.70;78.50;;;;;;4877956;29;20053;-86
2022/06/18 08:18:50;;;;;;;0.00;0.00;;;34.50;79.60;;;;;;4862477;29;20043;-86
2022/06/18 08:21:19;;;;;;;0.20;0.20;;;35.00;77.70;;;;;;4862628;29;20124;-86
2022/06/18 08:23:45;;;;;;;0.40;0.40;;;35.20;76.60;;;;;;4866187;29;20036;-85
2022/06/18 08:26:11;;;;;;;0.13;0.13;;;35.20;76.70;;;;;;4896966;29;20056;-85
2022/06/18 08:28:38;;;;;;;0.10;0.10;;;35.30;74.80;;;;;;4896461;29;20052;-86
2022/06/18 08:31:06;;;;;;;0.10;0.10;;;35.40;75.60;;;;;;4896907;29;20404;-86
2022/06/18 08:33:33;;;;;;;0.15;0.15;;;35.50;75.50;;;;;;4898449;29;20427;-84
2022/06/18 08:36:01;;;;;;;0.20;0.20;;;35.60;76.00;;;;;;4884439;29;20041;-84
2022/06/18 08:38:28;;;;;;;0.10;0.10;;;35.70;75.70;;;;;;4884744;29;20052;-84
2022/06/18 08:41:08;;;;;;;0.30;0.30;;;35.70;75.60;;;;;;4884355;29;20044;-84
2022/06/18 08:43:50;;;;;;;0.35;0.35;;;35.70;74.40;;;;;;4884409;29;20048;-84
2022/06/18 08:46:18;;;;;;;0.00;0.00;;;36.00;74.90;;;;;;4884370;29;20048;-84
2022/06/18 08:49:03;;;;;;;0.05;0.05;;;36.10;75.10;;;;;;4880936;29;20140;-84
2022/06/18 08:51:43;;;;;;;0.10;0.10;;;36.10;74.20;;;;;;4881201;29;20487;-84
2022/06/18 08:54:34;;;;;;;1.13;1.05;;;36.10;73.80;;;;;;4880983;29;20048;-85
2022/06/18 08:57:25;;;;;;;0.20;0.20;;;36.50;74.20;;;;;;4881056;29;20520;-85
2022/06/18 09:00:09;;;;;;;0.10;0.10;;;36.60;72.20;;;;;;4865274;29;20061;-85
2022/06/18 09:02:56;;;;;;;0.10;0.10;;;36.80;71.20;;;;;;4880989;29;20135;-85
2022/06/18 09:05:36;;;;;;;0.43;0.43;;;36.80;72.50;;;;;;4865324;29;20052;-85
2022/06/18 09:08:11;;;;;;;0.10;0.10;;;36.80;71.00;;;;;;4881194;29;20124;-86
2022/06/18 09:10:58;;;;;;;0.20;0.20;;;36.70;71.10;;;;;;4865286;29;20053;-85
2022/06/18 09:13:39;;;;;;;0.40;0.40;;;36.70;72.20;;;;;;4873801;29;20041;-86
2022/06/18 09:16:09;;;;;;;0.10;0.10;;;36.70;70.60;;;;;;4899522;29;20048;-86
2022/06/18 09:18:52;;;;;;;0.10;0.10;;;36.90;69.20;;;;;;4899446;29;20041;-86
2022/06/18 09:21:36;;;;;;;0.00;0.00;;;37.00;70.20;;;;;;4899442;29;20603;-86
2022/06/18 09:24:05;;;;;;;0.05;0.05;;;37.00;69.60;;;;;;4896435;29;20041;-86
2022/06/18 09:26:40;;;;;;;0.10;0.10;;;37.00;70.00;;;;;;4880629;29;20050;-86
2022/06/18 09:29:13;;;;;;;3.30;0.40;;;36.70;68.60;;;;;;4880903;29;20055;-85
2022/06/18 09:31:47;;;;;;;0.20;0.20;;;36.90;69.10;;;;;;4864911;29;20049;-86
2022/06/18 09:34:20;;;;;;;0.40;0.40;;;36.10;68.90;;;;;;4880962;29;20056;-86
2022/06/18 09:36:50;;;;;;;0.03;0.03;;;35.30;70.50;;;;;;4880390;29;20068;-86
2022/06/18 09:39:23;;;;;;;0.22;0.22;;;35.40;71.20;;;;;;4865024;29;20067;-86
2022/06/18 09:42:14;;;;;;;0.20;0.20;;;35.60;71.40;;;;;;4879787;29;20619;-85
2022/06/18 09:45:01;;;;;;;0.10;0.10;;;35.70;70.40;;;;;;4879311;29;20041;-85
2022/06/18 09:47:38;;;;;;;0.10;0.10;;;36.40;71.30;;;;;;4880151;29;20041;-85
2022/06/18 09:50:39;;;;;;;0.10;0.10;;;36.00;70.10;;;;;;4880084;29;20045;-85
2022/06/18 09:53:23;;;;;;;0.35;0.32;;;36.40;69.50;;;;;;4879796;29;20135;-85
2022/06/18 09:55:53;;;;;;;2.35;0.45;;;35.80;70.90;;;;;;4864606;29;20040;-85
2022/06/18 09:58:28;;;;;;;0.10;0.10;;;35.50;68.50;;;;;;4879836;29;20097;-83
2022/06/18 10:00:55;;;;;;;0.00;0.00;;;35.60;70.90;;;;;;4879810;29;20129;-84
2022/06/18 10:09:06;;;;;;;0.10;0.10;;;36.90;69.50;;;;;;4879624;29;20088;-83
2022/06/18 10:11:35;;;;;;;0.10;0.10;;;36.80;67.90;;;;;;4879803;29;20463;-83
2022/06/18 10:14:13;;;;;;;0.08;0.08;;;36.90;68.80;;;;;;4879954;29;20072;-86
2022/06/18 10:16:57;;;;;;;0.03;0.03;;;37.10;68.90;;;;;;4864128;29;20053;-86
2022/06/18 10:20:01;;;;;;;0.03;0.03;;;37.50;68.20;;;;;;4864375;29;20392;-86
2022/06/18 10:22:58;;;;;;;0.15;0.15;;;37.80;65.10;;;;;;4862983;29;20056;-86
2022/06/18 10:25:45;;;;;;;0.10;0.10;;;37.60;66.80;;;;;;4882887;29;20040;-85
2022/06/18 10:28:43;;;;;;;0.10;0.10;;;37.30;66.60;;;;;;4898058;29;20507;-86
2022/06/18 10:31:33;;;;;;;0.00;0.00;;;37.20;65.60;;;;;;4898311;29;20491;-85
2022/06/18 10:34:11;;;;;;;0.10;0.10;;;37.10;66.70;;;;;;4882542;29;20548;-86
2022/06/18 10:37:08;;;;;;;0.10;0.10;;;37.00;66.80;;;;;;4882479;29;20063;-85
2022/06/18 10:40:04;;;;;;;0.00;0.00;;;36.30;66.70;;;;;;4890459;29;20079;-86
2022/06/18 10:43:04;;;;;;;0.10;0.10;;;36.00;67.80;;;;;;4897927;29;20507;-86
2022/06/18 10:45:37;;;;;;;0.05;0.05;;;35.30;67.50;;;;;;4897877;29;20067;-86
2022/06/18 10:48:10;;;;;;;0.10;0.10;;;34.40;67.50;;;;;;4882237;29;20044;-84
2022/06/18 10:50:57;;;;;;;1.17;0.10;;;34.30;68.60;;;;;;4897620;29;20047;-83
2022/06/18 10:53:48;;;;;;;0.10;0.10;;;34.80;69.60;;;;;;4897640;29;20049;-83
2022/06/18 10:56:17;;;;;;;0.10;0.10;;;35.60;68.90;;;;;;4897063;29;20075;-84
2022/06/18 10:58:51;;;;;;;0.00;0.00;;;36.00;66.50;;;;;;4897256;29;20507;-83
2022/06/18 11:01:31;;;;;;;0.10;0.10;;;36.30;67.60;;;;;;4897459;29;20084;-84
2022/06/18 11:04:03;;;;;;;0.08;0.08;;;36.60;65.00;;;;;;4897872;29;20044;-86
2022/06/18 11:06:29;;;;;;;0.20;0.20;;;36.80;66.90;;;;;;4882095;29;20044;-86
2022/06/18 11:08:58;;;;;;;0.43;0.43;;;36.90;66.50;;;;;;4881897;29;20062;-85
2022/06/18 11:11:29;;;;;;;0.10;0.10;;;36.90;65.00;;;;;;4897597;29;20420;-86
2022/06/18 11:14:06;;;;;;;0.03;0.03;;;36.50;66.70;;;;;;4879217;29;20594;-86
2022/06/18 11:16:42;;;;;;;0.10;0.10;;;36.30;65.50;;;;;;4878679;29;20053;-86
2022/06/18 11:19:17;;;;;;;0.10;0.10;;;36.20;67.30;;;;;;4863435;29;20124;-84
2022/06/18 11:21:43;;;;;;;0.10;0.10;;;35.90;65.90;;;;;;4863119;29;20041;-84
2022/06/18 11:24:13;;;;;;;0.10;0.10;;;35.80;65.20;;;;;;4869394;29;20079;-84
2022/06/18 11:27:02;;;;;;;0.05;0.05;;;35.80;65.70;;;;;;4897187;29;20055;-84
2022/06/18 11:29:55;;;;;;;0.10;0.10;;;35.80;66.30;;;;;;4896924;29;20552;-84
2022/06/18 11:32:35;;;;;;;0.10;0.10;;;34.60;66.50;;;;;;4895362;29;20109;-84
2022/06/18 11:35:25;;;;;;;0.10;0.10;;;34.10;66.70;;;;;;4896884;29;20053;-83
2022/06/18 11:38:24;;;;;;;0.68;0.20;;;34.40;67.70;;;;;;4897480;29;20123;-85
2022/06/18 11:40:55;;;;;;;0.00;0.00;;;34.70;65.50;;;;;;4896952;29;20048;-85
2022/06/18 11:43:26;;;;;;;0.10;0.10;;;34.70;66.90;;;;;;4881414;29;20040;-85
2022/06/18 11:45:57;;;;;;;0.28;0.28;;;34.80;65.50;;;;;;4896866;29;20495;-85
2022/06/18 11:48:50;;;;;;;0.00;0.00;;;35.10;66.20;;;;;;4897004;29;20044;-85
2022/06/18 11:52:09;;;;;;;0.00;0.00;;;35.40;66.60;;;;;;4881749;29;20040;-85
2022/06/18 11:54:57;;;;;;;0.10;0.10;;;35.20;65.90;;;;;;4846370;29;20136;-86
2022/06/18 11:57:29;;;;;;;0.10;0.10;;;35.40;65.90;;;;;;4846518;29;20053;-86
2022/06/18 12:00:22;;;;;;;0.10;0.10;;;35.50;65.20;;;;;;4883821;29;20103;-85
2022/06/18 12:03:06;;;;;;;0.43;0.40;;;35.50;65.40;;;;;;4881222;29;20530;-85
2022/06/18 12:06:02;;;;;;;0.10;0.10;;;35.70;65.20;;;;;;4896804;29;20037;-86
2022/06/18 12:08:28;;;;;;;0.10;0.10;;;35.50;64.90;;;;;;4883047;29;20044;-86
2022/06/18 12:11:04;;;;;;;0.20;0.13;;;35.30;64.90;;;;;;4900374;29;20040;-86
2022/06/18 12:13:46;;;;;;;0.85;0.47;;;34.60;64.60;;;;;;4884995;29;20033;-85
2022/06/18 12:16:34;;;;;;;0.03;0.03;;;34.10;65.60;;;;;;4885082;29;20403;-85
2022/06/18 12:19:16;;;;;;;0.00;0.00;;;33.90;66.20;;;;;;4900737;29;20057;-85
2022/06/18 12:21:41;;;;;;;0.20;0.20;;;34.10;65.70;;;;;;4900411;29;20124;-85
2022/06/18 12:24:30;;;;;;;0.13;0.13;;;34.10;65.70;;;;;;4900298;29;20087;-85
2022/06/18 12:27:12;;;;;;;0.00;0.00;;;34.00;65.20;;;;;;4884948;29;20048;-85
2022/06/18 12:30:17;;;;;;;0.08;0.08;;;33.90;65.70;;;;;;4884857;29;20097;-86
2022/06/18 12:33:01;;;;;;;0.00;0.00;;;34.10;65.20;;;;;;4899671;29;20523;-86
2022/06/18 12:35:45;;;;;;;0.03;0.03;;;34.10;65.20;;;;;;4900312;29;20044;-85
2022/06/18 12:38:20;;;;;;;0.20;0.20;;;34.00;66.50;;;;;;4900410;29;20396;-85
2022/06/18 12:41:15;;;;;;;0.08;0.08;;;34.10;64.60;;;;;;4884348;29;20055;-85
2022/06/18 12:44:09;;;;;;;0.00;0.00;;;33.90;64.10;;;;;;4879861;29;20045;-84
2022/06/18 12:47:22;;;;;;;0.00;0.00;;;33.60;64.80;;;;;;4884575;29;20048;-84
2022/06/18 12:50:22;;;;;;;0.00;0.00;;;33.60;65.10;;;;;;4849149;29;20084;-84
2022/06/18 12:53:06;;;;;;;0.20;0.20;;;33.60;65.10;;;;;;4848843;29;20044;-84
2022/06/18 12:55:41;;;;;;;0.10;0.10;;;33.40;66.00;;;;;;4895282;29;20060;-84
2022/06/18 12:58:25;;;;;;;0.08;0.08;;;33.10;65.10;;;;;;4884280;29;20404;-84
2022/06/18 13:01:28;;;;;;;0.00;0.00;;;32.30;66.10;;;;;;4899635;29;20048;-84
2022/06/18 13:04:02;;;;;;;0.00;0.00;;;31.60;66.80;;;;;;4843948;29;20066;-84
2022/06/18 13:06:44;;;;;;;0.10;0.10;;;30.90;68.00;;;;;;4884159;29;20139;-84
2022/06/18 13:09:28;;;;;;;0.00;0.00;;;30.30;68.70;;;;;;4884179;29;20631;-84
2022/06/18 13:12:29;;;;;;;0.38;0.13;;;29.60;70.20;;;;;;4899546;29;20491;-84
2022/06/18 13:15:13;;;;;;;1.13;0.63;;;29.00;70.20;;;;;;4880296;29;20519;-84
2022/06/18 13:17:51;;;;;;;0.10;0.10;;;28.60;71.20;;;;;;4880663;29;20089;-84
2022/06/18 13:20:36;;;;;;;0.00;0.00;;;28.70;71.70;;;;;;4879377;29;20049;-84
2022/06/18 13:28:10;;;;;;;5.13;0.38;;;28.70;70.90;;;;;;4880384;29;20037;-84
2022/06/18 13:28:42;;;;;;;0.00;0.00;;;28.30;71.00;;;;;;4880453;29;20108;-84
2022/06/18 13:31:27;;;;;;;0.55;0.55;;;28.00;71.90;;;;;;4880693;29;20152;-84
2022/06/18 13:34:07;;;;;;;0.00;0.00;;;27.70;71.90;;;;;;4880468;29;20041;-84
2022/06/18 13:37:11;;;;;;;0.08;0.08;;;27.80;72.70;;;;;;4879831;29;20056;-84
2022/06/18 13:40:01;;;;;;;0.05;0.05;;;28.40;72.40;;;;;;4880248;29;20192;-84